Time;durP1;ratioP1;P1;durP2;ratioP2;P2;SDS_P1;SDS_P2;PMS_P1;PMS_P2;Temp;Humidity;BMP_temperature;BMP_pressure;BME280_temperature;BME280_humidity;BME280_pressure;Samples;Min_cycle;Max_cycle;Signal;HPM_P1;HPM_P2
2021/07/04 00:00:35;;;;;;;;;3.75;3.75;;;;;26.24;49.23;101072.00;5059433;28;45254;-72
2021/07/04 00:03:02;;;;;;;;;2.50;2.50;;;;;26.04;49.43;101044.31;5060012;28;45470;-72
2021/07/04 00:05:38;;;;;;;;;3.00;3.00;;;;;26.23;49.08;101063.16;5077379;28;45201;-72
2021/07/04 00:08:04;;;;;;;;;3.00;3.00;;;;;26.01;49.17;101026.03;5059306;28;45628;-72
2021/07/04 00:10:33;;;;;;;;;3.25;2.50;;;;;26.34;49.06;101076.94;5057995;28;45278;-72
2021/07/04 00:12:59;;;;;;;;;2.00;2.00;;;;;26.08;48.88;101034.03;5067890;28;45437;-72
2021/07/04 00:15:27;;;;;;;;;4.00;4.00;;;;;26.12;48.95;101029.97;5063130;28;45449;-72
2021/07/04 00:17:52;;;;;;;;;3.00;3.00;;;;;26.25;48.69;101038.97;5059275;28;45486;-72
2021/07/04 00:20:20;;;;;;;;;2.75;2.75;;;;;26.17;49.12;101024.84;5059842;28;45405;-72
2021/07/04 00:22:54;;;;;;;;;2.67;2.67;;;;;26.38;48.86;101057.66;5063460;28;45214;-72
2021/07/04 00:25:21;;;;;;;;;2.75;2.75;;;;;26.27;48.88;101031.59;5062280;28;45429;-72
2021/07/04 00:27:47;;;;;;;;;6.00;3.00;;;;;26.26;48.72;101044.09;5062709;28;45451;-72
2021/07/04 00:30:14;;;;;;;;;2.50;2.50;;;;;26.20;49.09;101020.09;5072619;28;45411;-72
2021/07/04 00:32:40;;;;;;;;;4.00;4.00;;;;;26.27;48.88;101031.59;5073153;28;45265;-72
2021/07/04 00:35:08;;;;;;;;;4.00;4.00;;;;;26.41;48.88;101043.09;5076005;28;45453;-72
2021/07/04 00:37:33;;;;;;;;;2.00;2.00;;;;;26.40;49.05;101050.28;5081798;28;45214;-72
2021/07/04 00:39:58;;;;;;;;;2.00;2.00;;;;;26.05;48.76;100987.28;5072852;27;45305;-72
2021/07/04 00:42:24;;;;;;;;;3.00;3.00;;;;;26.33;48.83;101025.44;5072179;28;45402;-72
2021/07/04 00:44:51;;;;;;;;;2.50;2.00;;;;;26.28;48.52;101018.03;5062365;28;45511;-72
2021/07/04 00:47:17;;;;;;;;;3.50;3.00;;;;;26.06;48.93;100988.94;5062911;28;45349;-72
2021/07/04 00:49:42;;;;;;;;;3.50;3.50;;;;;26.35;48.98;101027.91;5062242;28;45457;-72
2021/07/04 00:52:08;;;;;;;;;2.00;2.00;;;;;26.15;48.90;100994.06;5063319;28;45925;-72
2021/07/04 00:54:35;;;;;;;;;4.75;4.75;;;;;26.16;48.63;100995.69;5061229;28;45413;-72
2021/07/04 00:57:01;;;;;;;;;2.00;2.00;;;;;26.22;48.37;101007.38;5062533;28;46448;-73
2021/07/04 00:59:26;;;;;;;;;4.25;3.00;;;;;26.43;48.88;101038.38;5062004;28;45440;-72
2021/07/04 01:01:57;;;;;;;;;4.25;3.25;;;;;26.10;48.81;100981.31;5062341;28;45195;-72
2021/07/04 01:04:22;;;;;;;;;2.00;2.00;;;;;26.16;48.93;100991.19;5071710;28;45522;-72
2021/07/04 01:06:47;;;;;;;;;2.75;2.00;;;;;26.14;48.86;100981.75;5070280;28;46341;-72
2021/07/04 01:09:13;;;;;;;;;4.00;4.00;;;;;26.34;48.54;101007.56;5062213;28;45387;-72
2021/07/04 01:11:39;;;;;;;;;3.00;3.00;;;;;26.28;48.63;101006.56;5068229;28;45413;-72
2021/07/04 01:14:04;;;;;;;;;3.00;3.00;;;;;26.34;48.56;101021.75;5075403;28;45557;-72
2021/07/04 01:16:31;;;;;;;;;3.00;3.00;;;;;26.12;48.69;100981.13;5060856;28;45971;-72
2021/07/04 01:18:56;;;;;;;;;2.00;2.00;;;;;26.14;48.65;100982.56;5060784;28;45916;-72
2021/07/04 01:21:24;;;;;;;;;2.00;2.00;;;;;26.18;48.46;100990.97;5062444;28;45275;-72
2021/07/04 01:23:50;;;;;;;;;3.00;2.00;;;;;26.21;48.82;100990.56;5061918;28;45543;-72
2021/07/04 01:26:16;;;;;;;;;2.00;2.00;;;;;26.31;48.60;101006.13;5060608;28;46516;-72
2021/07/04 01:28:41;;;;;;;;;2.50;2.50;;;;;26.41;48.81;101011.88;5061230;28;45449;-72
2021/07/04 01:31:07;;;;;;;;;5.25;3.50;;;;;26.38;48.81;101015.00;5078397;27;45504;-72
2021/07/04 01:33:33;;;;;;;;;1.50;1.50;;;;;26.15;48.39;100975.41;5061367;28;45358;-72
2021/07/04 01:35:59;;;;;;;;;2.00;2.00;;;;;26.29;48.47;100984.19;5061603;28;45410;-72
2021/07/04 01:38:24;;;;;;;;;4.00;3.00;;;;;26.11;48.35;100952.81;5067515;28;45504;-72
2021/07/04 01:40:50;;;;;;;;;2.00;2.00;;;;;26.33;48.63;100995.28;5070578;28;45354;-72
2021/07/04 01:43:15;;;;;;;;;2.00;2.00;;;;;26.23;48.72;100980.50;5061485;28;45268;-72
2021/07/04 01:45:41;;;;;;;;;2.25;2.25;;;;;26.08;48.51;100956.72;5060662;28;47962;-72
2021/07/04 01:48:08;;;;;;;;;1.00;1.00;;;;;26.39;48.67;101005.94;5061713;28;45366;-72
2021/07/04 01:50:38;;;;;;;;;2.50;2.50;;;;;26.42;48.57;101023.38;5062047;28;45236;-72
2021/07/04 01:53:04;;;;;;;;;1.00;1.00;;;;;26.40;48.26;101015.59;5061602;28;45406;-72
2021/07/04 01:55:29;;;;;;;;;2.00;2.00;;;;;26.32;48.46;100998.97;5061583;28;45434;-72
2021/07/04 01:57:56;;;;;;;;;3.00;2.00;;;;;26.23;48.42;100985.03;5061185;28;45473;-72
2021/07/04 02:00:28;;;;;;;;;2.00;2.00;;;;;26.40;48.47;101006.75;5061829;28;45536;-72
2021/07/04 02:02:56;;;;;;;;;5.00;3.00;;;;;26.10;48.34;100952.00;5068465;28;45299;-72
2021/07/04 02:05:22;;;;;;;;;2.00;2.00;;;;;26.42;48.71;100999.38;5081064;28;46266;-72
2021/07/04 02:07:48;;;;;;;;;3.00;3.00;;;;;26.41;48.39;100995.06;5061361;28;45243;-71
2021/07/04 02:10:20;;;;;;;;;2.75;2.75;;;;;26.37;48.66;100993.84;5061458;28;45273;-72
2021/07/04 02:12:47;;;;;;;;;2.25;2.25;;;;;26.24;48.44;100976.81;5067641;28;45354;-72
2021/07/04 02:15:22;;;;;;;;;2.00;2.00;;;;;26.05;48.56;100943.78;5068026;28;46613;-72
2021/07/04 02:17:48;;;;;;;;;2.00;2.00;;;;;26.29;48.30;100984.19;5069182;28;45256;-71
2021/07/04 02:20:33;;;;;;;;;2.50;2.50;;;;;26.12;48.35;100957.97;5066582;28;45193;-71
2021/07/04 02:23:08;;;;;;;;;1.75;1.75;;;;;26.46;48.18;101005.16;5061191;28;45146;-72
2021/07/04 02:25:35;;;;;;;;;1.75;1.75;;;;;26.44;48.53;100993.88;5065974;28;45364;-72
2021/07/04 02:28:01;;;;;;;;;1.25;1.25;;;;;26.22;48.71;100962.06;5068560;28;45276;-72
2021/07/04 02:30:27;;;;;;;;;3.00;1.00;;;;;26.13;48.15;100950.75;5072975;28;45169;-72
2021/07/04 02:32:53;;;;;;;;;1.00;1.00;;;;;26.18;48.16;100959.78;5084098;27;45534;-71
2021/07/04 02:35:19;;;;;;;;;2.00;2.00;;;;;26.43;48.27;100992.19;5074501;28;45329;-71
2021/07/04 02:37:44;;;;;;;;;2.00;2.00;;;;;26.33;48.26;100973.94;5072754;28;45527;-71
2021/07/04 02:40:10;;;;;;;;;1.75;1.75;;;;;26.03;48.42;100930.69;5061863;28;45511;-71
2021/07/04 02:42:36;;;;;;;;;1.25;1.25;;;;;26.46;48.48;100997.16;5060478;28;45474;-71
2021/07/04 02:45:02;;;;;;;;;2.00;2.00;;;;;26.47;48.62;100993.44;5060152;28;45380;-71
2021/07/04 02:47:29;;;;;;;;;1.00;1.00;;;;;26.30;48.43;100972.50;5060823;28;45278;-71
2021/07/04 02:49:54;;;;;;;;;1.75;1.75;;;;;26.22;48.20;100954.88;5060764;28;45427;-71
2021/07/04 02:52:20;;;;;;;;;3.00;3.00;;;;;26.13;48.40;100924.91;5071286;28;45547;-72
2021/07/04 02:54:45;;;;;;;;;1.50;1.50;;;;;26.38;48.38;100960.81;5061402;28;45266;-72
2021/07/04 02:57:11;;;;;;;;;2.25;2.25;;;;;26.45;48.61;100996.31;5059302;28;45368;-72
2021/07/04 02:59:37;;;;;;;;;2.00;2.00;;;;;26.46;48.48;101005.16;5060427;28;45212;-72
2021/07/04 03:02:02;;;;;;;;;2.25;1.75;;;;;26.10;48.41;100945.88;5060268;28;45349;-72
2021/07/04 03:04:28;;;;;;;;;2.00;2.00;;;;;26.13;48.63;100956.09;5071896;28;46316;-72
2021/07/04 03:06:55;;;;;;;;;1.67;1.67;;;;;26.05;48.09;100936.63;5066533;28;45509;-72
2021/07/04 03:09:20;;;;;;;;;1.25;1.25;;;;;26.27;48.55;100972.91;5059170;28;45343;-72
2021/07/04 03:11:46;;;;;;;;;2.00;2.00;;;;;26.35;48.46;100980.72;5060035;28;45458;-72
2021/07/04 03:14:12;;;;;;;;;2.00;2.00;;;;;26.36;48.31;100977.00;5073397;28;45446;-72
2021/07/04 03:16:37;;;;;;;;;2.25;2.25;;;;;26.16;47.98;100932.50;5060575;28;45234;-72
2021/07/04 03:19:03;;;;;;;;;1.00;1.00;;;;;26.26;48.28;100948.09;5060373;28;45957;-72
2021/07/04 03:21:28;;;;;;;;;2.00;2.00;;;;;26.43;48.46;100977.00;5059099;28;45407;-72
2021/07/04 03:23:54;;;;;;;;;2.00;2.00;;;;;26.15;48.39;100941.53;5059728;28;45330;-72
2021/07/04 03:26:22;;;;;;;;;2.00;2.00;;;;;25.99;48.50;100924.13;5058961;28;45236;-72
2021/07/04 03:28:48;;;;;;;;;2.33;1.33;;;;;26.21;48.20;100963.06;5065471;28;45481;-72
2021/07/04 03:31:13;;;;;;;;;2.00;2.00;;;;;26.40;48.42;100996.09;5080249;28;46140;-72
2021/07/04 03:33:39;;;;;;;;;2.25;2.25;;;;;25.98;48.24;100926.97;5060873;28;45396;-72
2021/07/04 03:36:05;;;;;;;;;3.00;2.00;;;;;26.31;48.47;100970.66;5060125;28;46812;-72
2021/07/04 03:38:31;;;;;;;;;2.00;2.00;;;;;26.18;48.34;100941.13;5072395;28;45317;-72
2021/07/04 03:40:57;;;;;;;;;2.50;2.50;;;;;26.14;48.51;100931.09;5060234;28;45265;-72
2021/07/04 03:43:23;;;;;;;;;1.25;1.25;;;;;26.06;48.45;100911.59;5059054;28;46142;-72
2021/07/04 03:45:48;;;;;;;;;2.00;2.00;;;;;26.31;48.01;100952.00;5059967;28;45300;-72
2021/07/04 03:48:14;;;;;;;;;1.25;1.25;;;;;26.38;48.38;100964.31;5060177;28;45391;-72
2021/07/04 03:50:39;;;;;;;;;3.75;3.75;;;;;26.32;48.25;100949.13;5060135;28;45244;-72
2021/07/04 03:53:05;;;;;;;;;0.25;0.25;;;;;26.33;48.21;100955.28;5059726;28;46376;-72
2021/07/04 03:55:30;;;;;;;;;2.00;2.00;;;;;26.16;48.11;100934.34;5060812;28;45339;-72
2021/07/04 03:57:56;;;;;;;;;2.00;2.00;;;;;26.35;48.33;100972.72;5063395;28;45165;-71
2021/07/04 04:00:22;;;;;;;;;2.00;2.00;;;;;26.07;48.22;100928.44;5063525;28;45365;-72
2021/07/04 04:02:47;;;;;;;;;2.00;1.25;;;;;26.26;48.38;100957.94;5063317;28;45374;-72
2021/07/04 04:05:13;;;;;;;;;4.00;3.00;;;;;26.10;48.01;100941.31;5067831;28;45284;-72
2021/07/04 04:07:40;;;;;;;;;2.00;2.00;;;;;26.22;48.36;100968.22;5061967;28;45319;-72
2021/07/04 04:10:07;;;;;;;;;3.00;2.50;;;;;26.46;48.32;100999.81;5076707;27;45421;-72
2021/07/04 04:12:32;;;;;;;;;2.00;2.00;;;;;26.19;48.40;100960.63;5069603;27;46296;-72
2021/07/04 04:15:00;;;;;;;;;2.50;2.50;;;;;26.40;48.24;100991.59;5072078;28;45200;-72
2021/07/04 04:17:29;;;;;;;;;2.75;2.00;;;;;26.06;48.20;100942.78;5062989;28;45443;-72
2021/07/04 04:19:55;;;;;;;;;1.50;1.50;;;;;26.37;47.91;100983.16;5063176;28;45529;-72
2021/07/04 04:22:21;;;;;;;;;2.00;2.00;;;;;26.18;48.26;100949.13;5062895;28;45392;-72
2021/07/04 04:24:47;;;;;;;;;2.00;2.00;;;;;26.27;48.16;100959.59;5063044;28;45673;-72
2021/07/04 04:27:12;;;;;;;;;1.00;1.00;;;;;26.30;48.25;100969.84;5062719;28;45283;-72
2021/07/04 04:29:38;;;;;;;;;2.00;2.00;;;;;26.07;48.08;100937.22;5067904;28;45311;-72
2021/07/04 04:32:04;;;;;;;;;2.00;2.00;;;;;26.34;48.27;100973.72;5076906;27;45394;-72
2021/07/04 04:34:30;;;;;;;;;2.00;2.00;;;;;26.37;48.27;100975.16;5062835;28;45240;-72
2021/07/04 04:36:55;;;;;;;;;2.00;2.00;;;;;26.10;48.41;100927.19;5069053;28;45218;-72
2021/07/04 04:39:21;;;;;;;;;1.25;1.25;;;;;26.18;47.92;100946.47;5069383;28;45165;-72
2021/07/04 04:41:48;;;;;;;;;1.50;1.50;;;;;26.43;48.08;100971.69;5062103;28;46182;-72
2021/07/04 04:44:14;;;;;;;;;2.00;2.00;;;;;26.09;48.03;100918.38;5062425;28;45399;-71
2021/07/04 04:46:39;;;;;;;;;2.25;2.25;;;;;26.13;48.29;100924.09;5061480;28;45312;-72
2021/07/04 04:49:04;;;;;;;;;2.00;2.00;;;;;26.28;47.93;100940.69;5062681;28;45406;-72
2021/07/04 04:51:30;;;;;;;;;2.50;1.75;;;;;26.32;47.96;100957.13;5078142;28;48103;-72
2021/07/04 04:53:55;;;;;;;;;2.00;2.00;;;;;26.40;48.18;100962.25;5062753;28;45323;-72
2021/07/04 04:56:21;;;;;;;;;1.25;1.25;;;;;26.34;48.07;100955.06;5062684;28;45224;-72
2021/07/04 04:58:46;;;;;;;;;2.00;2.00;;;;;26.04;48.12;100904.84;5062280;28;45414;-72
2021/07/04 05:01:12;;;;;;;;;1.00;1.00;;;;;26.23;48.03;100929.84;5062295;28;46467;-72
2021/07/04 05:03:37;;;;;;;;;2.25;2.25;;;;;26.25;48.08;100938.47;5067373;28;45342;-72
2021/07/04 05:06:03;;;;;;;;;1.00;1.00;;;;;26.23;47.88;100940.50;5080666;28;45298;-72
2021/07/04 05:08:30;;;;;;;;;1.00;1.00;;;;;26.05;47.86;100912.63;5075848;28;45279;-72
2021/07/04 05:10:55;;;;;;;;;1.00;1.00;;;;;26.16;47.97;100931.69;5061549;28;45541;-72
2021/07/04 05:13:21;;;;;;;;;2.00;2.00;;;;;26.11;47.83;100918.97;5072755;28;45271;-71
2021/07/04 05:15:46;;;;;;;;;2.00;2.00;;;;;26.11;48.12;100912.81;5064484;28;45210;-71
2021/07/04 05:18:12;;;;;;;;;1.50;1.50;;;;;26.15;47.68;100919.41;5062346;28;45713;-71
2021/07/04 05:20:37;;;;;;;;;2.00;2.00;;;;;26.21;47.87;100925.72;5062208;28;46617;-71
2021/07/04 05:23:03;;;;;;;;;1.67;1.67;;;;;26.07;48.28;100915.91;5062308;28;45370;-71
2021/07/04 05:25:28;;;;;;;;;2.00;2.00;;;;;26.27;48.10;100941.75;5061938;28;45383;-71
2021/07/04 05:27:53;;;;;;;;;2.00;1.50;;;;;26.33;47.76;100933.94;5062093;28;45317;-71
2021/07/04 05:30:19;;;;;;;;;1.00;1.00;;;;;26.32;48.34;100940.28;5072806;28;46297;-71
2021/07/04 05:32:44;;;;;;;;;1.00;1.00;;;;;26.28;47.75;100931.91;5071227;28;45340;-71
2021/07/04 05:35:10;;;;;;;;;0.25;0.25;;;;;26.39;47.93;100944.59;5061822;28;45482;-71
2021/07/04 05:37:36;;;;;;;;;2.00;2.00;;;;;26.26;47.96;100937.44;5072569;28;45448;-71
2021/07/04 05:40:12;;;;;;;;;3.00;3.00;;;;;26.41;47.92;100953.19;5063757;28;45464;-71
2021/07/04 05:42:38;;;;;;;;;1.00;1.00;;;;;26.40;47.60;100940.91;5060435;28;45567;-71
2021/07/04 05:45:08;;;;;;;;;1.00;1.00;;;;;26.36;48.07;100933.53;5067216;28;45216;-71
2021/07/04 05:47:33;;;;;;;;;1.00;1.00;;;;;26.43;47.65;100939.66;5068337;28;45497;-71
2021/07/04 05:49:59;;;;;;;;;1.00;1.00;;;;;26.42;48.01;100930.00;5061657;28;45377;-71
2021/07/04 05:52:24;;;;;;;;;1.25;1.25;;;;;26.24;47.76;100888.81;5061401;28;45352;-71
2021/07/04 05:54:50;;;;;;;;;2.25;1.00;;;;;26.16;48.06;100881.03;5062061;28;45431;-71
2021/07/04 05:57:15;;;;;;;;;2.50;2.50;;;;;26.38;47.92;100913.63;5077023;28;45495;-71
2021/07/04 05:59:41;;;;;;;;;1.50;1.50;;;;;26.09;47.81;100865.06;5060107;28;45475;-71
2021/07/04 06:02:07;;;;;;;;;1.00;1.00;;;;;26.43;47.40;100918.31;5061590;28;45314;-71
2021/07/04 06:04:33;;;;;;;;;1.00;1.00;;;;;26.36;47.79;100910.31;5074157;28;45248;-71
2021/07/04 06:06:58;;;;;;;;;1.25;1.25;;;;;26.15;48.20;100885.53;5067068;28;45585;-71
2021/07/04 06:09:23;;;;;;;;;1.00;1.00;;;;;26.29;47.99;100909.53;5060056;28;47298;-71
2021/07/04 06:11:51;;;;;;;;;4.00;2.00;;;;;26.35;47.77;100915.88;5061427;28;45245;-71
2021/07/04 06:14:16;;;;;;;;;1.00;1.00;;;;;26.28;47.70;100908.69;5074228;28;45291;-71
2021/07/04 06:16:42;;;;;;;;;2.00;2.00;;;;;26.22;47.72;100900.72;5061272;28;45533;-71
2021/07/04 06:19:07;;;;;;;;;1.00;1.00;;;;;26.26;47.62;100915.25;5060345;28;45681;-71
2021/07/04 06:21:33;;;;;;;;;2.00;2.00;;;;;26.06;48.07;100882.28;5061340;28;45314;-72
2021/07/04 06:23:58;;;;;;;;;1.75;1.75;;;;;26.02;47.56;100881.03;5061153;28;45370;-72
2021/07/04 06:26:23;;;;;;;;;2.33;1.00;;;;;26.09;47.59;100889.03;5061151;28;45609;-72
2021/07/04 06:28:49;;;;;;;;;0.00;0.00;;;;;26.09;48.05;100891.72;5060690;28;45372;-72
2021/07/04 06:31:14;;;;;;;;;2.00;2.00;;;;;26.36;47.60;100936.19;5078383;28;45425;-71
2021/07/04 06:33:40;;;;;;;;;2.00;2.00;;;;;25.99;47.62;100877.97;5061241;28;45358;-71
2021/07/04 06:36:05;;;;;;;;;1.25;1.25;;;;;26.20;47.66;100908.94;5060936;28;45528;-71
2021/07/04 06:38:30;;;;;;;;;2.00;2.00;;;;;26.06;48.03;100884.94;5073594;28;46272;-71
2021/07/04 06:40:56;;;;;;;;;0.67;0.67;;;;;26.14;47.91;100909.75;5061029;28;45353;-72
2021/07/04 06:43:21;;;;;;;;;1.00;1.00;;;;;26.39;47.82;100951.75;5060643;28;45354;-71
2021/07/04 06:45:47;;;;;;;;;1.00;1.00;;;;;26.41;47.62;100953.19;5061062;28;45425;-71
2021/07/04 06:48:12;;;;;;;;;2.67;2.67;;;;;26.23;47.62;100929.03;5059345;28;46193;-71
2021/07/04 06:50:38;;;;;;;;;1.00;1.00;;;;;26.29;47.73;100936.19;5060945;28;45245;-71
2021/07/04 06:53:03;;;;;;;;;1.50;1.50;;;;;26.12;47.69;100906.47;5060871;28;45484;-71
2021/07/04 06:55:28;;;;;;;;;1.00;1.00;;;;;26.26;48.20;100933.94;5060909;28;45220;-71
2021/07/04 06:57:54;;;;;;;;;1.75;1.75;;;;;26.31;47.98;100938.66;5060163;28;46167;-72
2021/07/04 07:00:20;;;;;;;;;2.00;2.00;;;;;26.08;47.74;100906.06;5060673;28;45224;-71
2021/07/04 07:02:46;;;;;;;;;2.00;0.33;;;;;26.09;47.66;100904.22;5060753;28;45401;-71
2021/07/04 07:05:13;;;;;;;;;1.00;1.00;;;;;26.41;47.90;100958.53;5078390;28;45235;-71
2021/07/04 07:07:40;;;;;;;;;2.00;2.00;;;;;26.42;47.72;100954.03;5061601;28;45428;-71
2021/07/04 07:10:07;;;;;;;;;1.00;1.00;;;;;26.03;48.10;100897.84;5060328;28;45364;-72
2021/07/04 07:12:33;;;;;;;;;0.00;0.00;;;;;26.41;47.47;100957.72;5064294;28;45212;-71
2021/07/04 07:14:58;;;;;;;;;1.00;1.00;;;;;26.06;47.58;100911.59;5069125;28;45207;-71
2021/07/04 07:17:25;;;;;;;;;1.33;1.33;;;;;26.40;47.66;100956.09;5058778;28;46293;-71
2021/07/04 07:19:50;;;;;;;;;2.33;1.00;;;;;26.27;47.72;100943.59;5060453;28;45207;-71
2021/07/04 07:22:17;;;;;;;;;1.00;1.00;;;;;26.32;47.64;100957.13;5075931;28;45290;-71
2021/07/04 07:24:43;;;;;;;;;0.25;0.25;;;;;26.25;47.69;100937.63;5060022;28;45551;-72
2021/07/04 07:27:08;;;;;;;;;1.00;1.00;;;;;26.07;47.73;100904.44;5059857;28;45401;-72
2021/07/04 07:29:34;;;;;;;;;2.00;1.00;;;;;26.35;47.73;100955.88;5060095;28;45557;-72
2021/07/04 07:31:59;;;;;;;;;2.00;2.00;;;;;26.28;47.74;100942.56;5078836;28;45374;-71
2021/07/04 07:34:26;;;;;;;;;2.33;2.33;;;;;26.09;47.61;100906.88;5068955;28;45344;-71
2021/07/04 07:36:51;;;;;;;;;2.00;1.00;;;;;26.24;47.69;100918.16;5065702;28;46337;-71
2021/07/04 07:39:17;;;;;;;;;1.00;1.00;;;;;26.08;47.72;100895.41;5067123;28;45363;-71
2021/07/04 07:41:42;;;;;;;;;2.00;0.00;;;;;26.11;47.53;100892.31;5060029;28;45205;-71
2021/07/04 07:44:08;;;;;;;;;2.00;2.00;;;;;26.10;47.69;100887.22;5059738;28;45344;-72
2021/07/04 07:46:33;;;;;;;;;2.00;2.00;;;;;26.04;48.03;100870.19;5059903;28;46355;-72
2021/07/04 07:48:59;;;;;;;;;0.00;0.00;;;;;26.06;47.68;100879.63;5060093;28;45222;-71
2021/07/04 07:51:24;;;;;;;;;4.00;2.33;;;;;26.37;47.74;100922.63;5060035;28;45149;-71
2021/07/04 07:53:50;;;;;;;;;1.50;1.50;;;;;26.34;47.42;100917.72;5060052;28;45165;-72
2021/07/04 07:56:15;;;;;;;;;1.00;1.00;;;;;26.18;47.43;100885.13;5059802;28;46505;-71
2021/07/04 07:58:44;;;;;;;;;1.75;1.00;;;;;26.05;47.66;100851.31;5059502;28;45360;-71
2021/07/04 08:01:09;;;;;;;;;2.00;1.67;;;;;26.21;47.71;100864.41;5059904;28;45527;-71
2021/07/04 08:03:35;;;;;;;;;1.00;1.00;;;;;26.00;47.26;100832.44;5059271;28;45886;-71
2021/07/04 08:06:00;;;;;;;;;1.00;1.00;;;;;26.33;47.80;100886.75;5073394;28;45531;-71
2021/07/04 08:08:26;;;;;;;;;0.67;0.67;;;;;26.33;47.86;100883.25;5058173;28;45394;-71
2021/07/04 08:10:51;;;;;;;;;1.00;1.00;;;;;26.21;47.39;100865.22;5059441;28;45343;-71
2021/07/04 08:13:16;;;;;;;;;1.00;1.00;;;;;26.35;47.36;100886.53;5069562;28;45433;-71
2021/07/04 08:15:42;;;;;;;;;2.00;1.00;;;;;26.41;47.65;100893.72;5081810;27;48344;-72
2021/07/04 08:18:08;;;;;;;;;2.00;1.00;;;;;26.33;48.13;100881.41;5066872;28;45402;-71
2021/07/04 08:20:33;;;;;;;;;1.00;1.00;;;;;26.15;47.53;100853.53;5059161;28;45342;-71
2021/07/04 08:22:59;;;;;;;;;1.00;1.00;;;;;26.11;47.49;100844.31;5059245;28;45320;-72
2021/07/04 08:25:24;;;;;;;;;1.50;1.50;;;;;26.10;47.72;100850.69;5074314;28;46882;-71
2021/07/04 08:27:50;;;;;;;;;1.33;1.33;;;;;26.10;47.56;100858.69;5059307;28;45291;-71
2021/07/04 08:30:16;;;;;;;;;1.75;1.50;;;;;26.20;47.58;100876.13;5069892;28;45221;-71
2021/07/04 08:32:42;;;;;;;;;1.67;1.67;;;;;26.33;47.48;100896.59;5068901;28;45550;-71
2021/07/04 08:35:09;;;;;;;;;1.00;1.00;;;;;26.25;47.77;100879.78;5074813;28;46618;-71
2021/07/04 08:37:35;;;;;;;;;1.00;1.00;;;;;26.02;47.67;100848.25;5065450;28;45398;-72
2021/07/04 08:40:01;;;;;;;;;1.00;1.00;;;;;26.36;47.66;100896.97;5072870;28;45272;-72
2021/07/04 08:42:26;;;;;;;;;1.25;1.00;;;;;26.35;47.62;100892.69;5061492;28;45442;-71
2021/07/04 08:44:54;;;;;;;;;1.00;1.00;;;;;26.46;47.30;100909.13;5062440;28;45573;-71
2021/07/04 08:47:22;;;;;;;;;2.00;2.00;;;;;26.22;47.69;100882.88;5062869;28;45251;-71
2021/07/04 08:49:49;;;;;;;;;1.50;1.50;;;;;26.07;47.79;100851.91;5062663;28;45526;-72
2021/07/04 08:52:15;;;;;;;;;1.00;1.00;;;;;26.14;47.82;100859.91;5062773;28;45395;-71
2021/07/04 08:54:41;;;;;;;;;1.00;1.00;;;;;26.25;48.05;100877.13;5061567;28;46180;-71
2021/07/04 08:57:10;;;;;;;;;0.00;0.00;;;;;26.36;47.46;100899.66;5074985;28;45613;-71
2021/07/04 08:59:40;;;;;;;;;1.25;1.25;;;;;26.32;47.48;100879.78;5062200;28;45455;-71
2021/07/04 09:02:11;;;;;;;;;1.75;1.75;;;;;26.37;47.42;100889.81;5062260;28;45280;-71
2021/07/04 09:04:57;;;;;;;;;1.00;1.00;;;;;26.22;47.20;100866.06;5066869;28;45308;-71
2021/07/04 09:07:26;;;;;;;;;1.00;1.00;;;;;26.23;47.76;100867.69;5062151;28;45405;-71
2021/07/04 09:09:56;;;;;;;;;1.00;1.00;;;;;26.18;48.03;100860.31;5062445;28;45320;-71
2021/07/04 09:12:31;;;;;;;;;1.75;0.75;;;;;26.38;47.36;100880.78;5064825;28;45526;-71
2021/07/04 09:14:58;;;;;;;;;1.00;1.00;;;;;26.07;47.74;100833.25;5071086;28;45518;-71
2021/07/04 09:17:31;;;;;;;;;1.00;1.00;;;;;26.42;47.79;100874.00;5062016;28;45507;-71
2021/07/04 09:19:59;;;;;;;;;1.50;1.25;;;;;26.40;47.94;100866.22;5061076;28;45315;-71
2021/07/04 09:22:31;;;;;;;;;2.00;0.00;;;;;26.32;47.33;100857.63;5062105;28;45486;-71
2021/07/04 09:25:07;;;;;;;;;1.00;1.00;;;;;26.45;47.56;100872.78;5062151;28;45444;-72
2021/07/04 09:27:33;;;;;;;;;1.00;1.00;;;;;26.27;47.50;100832.41;5073330;28;45380;-74
2021/07/04 09:29:59;;;;;;;;;1.33;1.00;;;;;26.14;47.46;100814.59;5070224;28;45390;-74
2021/07/04 09:32:26;;;;;;;;;0.00;0.00;;;;;26.46;47.79;100847.75;5073553;28;45450;-73
2021/07/04 09:35:01;;;;;;;;;1.00;1.00;;;;;26.49;47.26;100853.47;5064107;28;46521;-75
2021/07/04 09:37:30;;;;;;;;;0.67;0.67;;;;;26.44;47.23;100826.63;5074902;28;45406;-75
2021/07/04 09:40:18;;;;;;;;;1.00;1.00;;;;;26.52;47.24;100839.72;5064297;28;45322;-73
2021/07/04 09:43:09;;;;;;;;;0.67;0.67;;;;;26.53;47.00;100840.56;5061582;28;45539;-79
2021/07/04 09:45:55;;;;;;;;;2.00;1.00;;;;;26.52;46.94;100836.22;5065562;28;46132;-74
2021/07/04 09:48:29;;;;;;;;;0.25;0.25;;;;;26.50;45.48;100828.44;5064941;27;45576;-75
2021/07/04 09:50:57;;;;;;;;;0.67;0.67;;;;;26.43;45.57;100816.97;5074579;27;45481;-75
2021/07/04 09:53:50;;;;;;;;;0.00;0.00;;;;;26.43;45.73;100822.28;5072915;27;45430;-74
2021/07/04 09:56:21;;;;;;;;;0.33;0.33;;;;;26.43;45.49;100816.97;5068567;27;45294;-75
2021/07/04 09:58:50;;;;;;;;;0.00;0.00;;;;;26.43;45.53;100813.47;5075482;28;45444;-75
2021/07/04 10:01:38;;;;;;;;;1.00;0.33;;;;;26.51;45.96;100813.28;5076793;27;45371;-75
2021/07/04 10:04:07;;;;;;;;;0.00;0.00;;;;;26.52;45.29;100801.56;5072090;28;45329;-77
2021/07/04 10:06:51;;;;;;;;;0.00;0.00;;;;;26.53;45.13;100808.53;5073354;27;45448;-77
2021/07/04 10:09:18;;;;;;;;;0.00;0.00;;;;;26.52;45.08;100793.53;5068308;27;45287;-77
2021/07/04 10:11:44;;;;;;;;;2.00;1.00;;;;;26.47;44.73;100780.84;5067263;27;45389;-77
2021/07/04 10:14:09;;;;;;;;;0.33;0.33;;;;;26.59;44.17;100799.69;5073013;27;45432;-78
2021/07/04 10:16:37;;;;;;;;;2.00;0.33;;;;;26.55;44.56;100798.47;5065278;27;46199;-78
2021/07/04 10:19:04;;;;;;;;;0.00;0.00;;;;;26.70;44.61;100811.53;5064744;27;45463;-77
2021/07/04 10:21:32;;;;;;;;;0.67;0.67;;;;;26.62;44.44;100793.13;5068351;28;45358;-77
2021/07/04 10:23:58;;;;;;;;;0.00;0.00;;;;;26.73;44.32;100807.59;5070059;28;45422;-78
2021/07/04 10:26:25;;;;;;;;;1.00;1.00;;;;;26.76;43.71;100804.53;5063965;28;45368;-78
2021/07/04 10:28:56;;;;;;;;;0.00;0.00;;;;;26.56;43.99;100776.09;5063195;27;45227;-75
2021/07/04 10:31:22;;;;;;;;;0.00;0.00;;;;;26.58;44.15;100787.38;5078306;28;45372;-74
2021/07/04 10:34:07;;;;;;;;;1.00;1.00;;;;;26.61;44.79;100792.28;5072662;28;45577;-74
2021/07/04 10:36:52;;;;;;;;;0.67;0.67;;;;;26.66;45.21;100799.66;5066400;28;47188;-78
2021/07/04 10:39:18;;;;;;;;;1.00;1.00;;;;;26.53;45.97;100784.53;5063274;28;45347;-76
2021/07/04 10:41:56;;;;;;;;;1.00;1.00;;;;;26.66;45.99;100802.31;5065897;28;45568;-74
2021/07/04 10:44:38;;;;;;;;;0.75;0.75;;;;;26.66;44.69;100805.00;5064872;28;45310;-77
2021/07/04 10:47:06;;;;;;;;;1.00;1.00;;;;;26.65;44.52;100786.53;5070652;28;46066;-78
2021/07/04 10:49:42;;;;;;;;;1.00;1.00;;;;;26.57;44.83;100784.94;5070534;28;45313;-79
2021/07/04 10:52:33;;;;;;;;;0.00;0.00;;;;;26.56;44.39;100777.94;5069624;28;45493;-79
2021/07/04 10:54:58;;;;;;;;;0.00;0.00;;;;;26.57;44.02;100780.38;5065973;27;45399;-77
2021/07/04 10:57:28;;;;;;;;;0.00;0.00;;;;;26.58;44.52;100789.22;5065125;28;45373;-73
2021/07/04 11:00:08;;;;;;;;;0.00;0.00;;;;;26.50;44.22;100782.28;5068856;27;46164;-71
2021/07/04 11:02:55;;;;;;;;;2.00;0.00;;;;;26.32;44.39;100754.41;5064686;27;45221;-75
2021/07/04 11:05:50;;;;;;;;;1.00;1.00;;;;;26.41;44.38;100769.13;5069880;27;45485;-75
2021/07/04 11:08:27;;;;;;;;;1.00;1.00;;;;;26.38;44.58;100769.59;5073686;27;47043;-74
2021/07/04 11:11:02;;;;;;;;;2.00;1.25;;;;;26.14;44.82;100723.13;5067101;27;45494;-73
2021/07/04 11:13:36;;;;;;;;;0.00;0.00;;;;;26.33;44.34;100760.59;5067265;28;45464;-74
2021/07/04 11:16:10;;;;;;;;;1.00;1.00;;;;;26.34;44.69;100759.53;5071679;28;45209;-73
2021/07/04 11:18:51;;;;;;;;;1.00;1.00;;;;;26.13;45.63;100730.28;5063562;28;45517;-75
2021/07/04 11:21:19;;;;;;;;;0.33;0.33;;;;;26.17;44.14;100746.69;5061820;28;45385;-74
2021/07/04 11:23:45;;;;;;;;;1.00;1.00;;;;;26.09;45.05;100752.25;5062354;28;45425;-77
2021/07/04 11:26:13;;;;;;;;;0.00;0.00;;;;;26.16;46.87;100771.72;5071046;28;45365;-77